createdAt,value
2023-05-17T00:00:47.345Z,82.37
2023-05-17T00:01:38.131Z,82.37
2023-05-17T00:02:29.013Z,82.37
2023-05-17T00:03:19.725Z,82.27
2023-05-17T00:04:10.565Z,82.17
2023-05-17T00:05:01.641Z,82.17
2023-05-17T00:05:52.493Z,82.17
2023-05-17T00:06:43.237Z,82.17
2023-05-17T00:07:34.049Z,81.96
2023-05-17T00:08:24.790Z,81.86
2023-05-17T00:09:15.615Z,81.86
2023-05-17T00:10:06.370Z,81.86
2023-05-17T00:10:57.183Z,81.86
2023-05-17T00:11:47.940Z,81.90
2023-05-17T00:12:38.782Z,82.00
2023-05-17T00:13:29.565Z,81.79
2023-05-17T00:14:20.308Z,81.79
2023-05-17T00:15:11.057Z,81.70
2023-05-17T00:16:01.842Z,81.79
2023-05-17T00:16:52.655Z,81.79
2023-05-17T00:17:43.508Z,81.70
2023-05-17T00:18:34.361Z,81.59
2023-05-17T00:19:25.340Z,81.49
2023-05-17T00:20:16.204Z,81.49
2023-05-17T00:21:06.994Z,81.49
2023-05-17T00:21:57.785Z,81.38
2023-05-17T00:22:48.570Z,81.38
2023-05-17T00:23:39.327Z,81.38
2023-05-17T00:24:30.121Z,81.38
2023-05-17T00:25:20.882Z,81.29
2023-05-17T00:26:11.600Z,81.18
2023-05-17T00:27:02.391Z,81.18
2023-05-17T00:27:53.211Z,81.18
2023-05-17T00:28:43.961Z,81.18
2023-05-17T00:29:34.855Z,81.08
2023-05-17T00:30:25.572Z,81.08
2023-05-17T00:31:16.331Z,80.98
2023-05-17T00:32:07.117Z,80.88
2023-05-17T00:32:57.906Z,80.77
2023-05-17T00:33:48.657Z,80.77
2023-05-17T00:34:39.449Z,80.88
2023-05-17T00:35:30.532Z,80.98
2023-05-17T00:36:21.455Z,80.98
2023-05-17T00:37:12.234Z,80.88
2023-05-17T00:38:03.049Z,80.88
2023-05-17T00:38:53.801Z,80.98
2023-05-17T00:39:44.593Z,80.77
2023-05-17T00:40:35.409Z,80.57
2023-05-17T00:41:26.149Z,80.57
2023-05-17T00:42:16.923Z,80.67
2023-05-17T00:43:07.668Z,80.36
2023-05-17T00:43:58.329Z,80.19
2023-05-17T00:44:49.145Z,80.09
2023-05-17T00:45:39.744Z,80.19
2023-05-17T00:46:30.420Z,80.30
2023-05-17T00:47:21.756Z,80.51
2023-05-17T00:48:12.619Z,80.40
2023-05-17T00:49:03.428Z,80.30
2023-05-17T00:49:54.155Z,80.19
2023-05-17T00:50:44.988Z,80.09
2023-05-17T00:51:35.720Z,80.09
2023-05-17T00:52:26.389Z,79.79
2023-05-17T00:53:17.636Z,79.68
2023-05-17T00:54:08.341Z,79.58
2023-05-17T00:54:59.000Z,79.44
2023-05-17T00:55:49.784Z,79.48
2023-05-17T00:56:40.618Z,79.44
2023-05-17T00:57:31.365Z,79.58
2023-05-17T00:58:22.163Z,79.58
2023-05-17T00:59:12.934Z,79.54
2023-05-17T01:00:03.859Z,79.64
2023-05-17T01:00:54.595Z,79.64
2023-05-17T01:01:45.376Z,79.64
2023-05-17T01:02:36.163Z,79.64
2023-05-17T01:03:27.000Z,79.54
2023-05-17T01:04:18.477Z,79.54
2023-05-17T01:05:08.760Z,79.44
2023-05-17T01:05:59.484Z,79.34
2023-05-17T01:06:50.252Z,79.24
2023-05-17T01:07:40.954Z,79.24
2023-05-17T01:08:32.235Z,79.34
2023-05-17T01:09:22.999Z,79.34
2023-05-17T01:10:13.787Z,79.34
2023-05-17T01:11:05.152Z,79.24
2023-05-17T01:11:55.833Z,79.34
2023-05-17T01:12:47.086Z,79.44
2023-05-17T01:13:38.397Z,79.44
2023-05-17T01:14:29.036Z,79.24
2023-05-17T01:15:19.920Z,79.13
2023-05-17T01:16:10.484Z,79.27
2023-05-17T01:17:01.293Z,79.27
2023-05-17T01:17:52.160Z,79.27
2023-05-17T01:18:43.088Z,79.27
2023-05-17T01:19:34.162Z,79.27
2023-05-17T01:20:25.732Z,79.27
2023-05-17T01:21:15.824Z,79.38
2023-05-17T01:22:06.600Z,79.27
2023-05-17T01:22:57.387Z,79.38
2023-05-17T01:23:48.181Z,79.48
2023-05-17T01:24:38.953Z,79.58
2023-05-17T01:25:29.985Z,79.79
2023-05-17T01:26:20.911Z,79.89
2023-05-17T01:27:11.666Z,79.79
2023-05-17T01:28:02.486Z,79.58
2023-05-17T01:28:53.233Z,79.58
2023-05-17T01:29:43.992Z,79.58
2023-05-17T01:30:34.928Z,79.58
2023-05-17T01:31:25.685Z,79.58
2023-05-17T01:32:16.434Z,79.58
2023-05-17T01:33:07.324Z,79.68
2023-05-17T01:33:58.194Z,79.58
2023-05-17T01:34:49.006Z,79.58
2023-05-17T01:35:39.773Z,79.58
2023-05-17T01:36:30.585Z,79.58
2023-05-17T01:37:21.360Z,79.68
2023-05-17T01:38:12.168Z,79.79
2023-05-17T01:39:02.962Z,79.93
2023-05-17T01:39:53.726Z,79.79
2023-05-17T01:40:44.513Z,79.82
2023-05-17T01:41:35.333Z,79.72
2023-05-17T01:42:26.086Z,79.72
2023-05-17T01:43:16.870Z,79.82
2023-05-17T01:44:07.654Z,79.82
2023-05-17T01:44:58.426Z,79.62
2023-05-17T01:45:49.408Z,79.52
2023-05-17T01:46:40.131Z,79.52
2023-05-17T01:47:31.062Z,79.62
2023-05-17T01:48:21.972Z,79.62
2023-05-17T01:49:12.701Z,79.62
2023-05-17T01:50:03.513Z,79.52
2023-05-17T01:50:55.689Z,79.41
2023-05-17T01:51:45.180Z,79.41
2023-05-17T01:52:35.936Z,79.41
2023-05-17T01:53:26.703Z,79.52
2023-05-17T01:54:17.481Z,79.52
2023-05-17T01:55:08.264Z,79.52
2023-05-17T01:55:59.097Z,79.52
2023-05-17T01:56:49.850Z,79.52
2023-05-17T01:57:40.636Z,79.62
2023-05-17T01:58:31.403Z,79.62
2023-05-17T01:59:22.168Z,79.52
2023-05-17T02:00:12.956Z,79.45
2023-05-17T02:01:03.836Z,79.45
2023-05-17T02:01:54.550Z,79.35
2023-05-17T02:02:45.403Z,79.45
2023-05-17T02:03:36.217Z,79.45
2023-05-17T02:04:26.962Z,79.45
2023-05-17T02:05:18.035Z,79.55
2023-05-17T02:06:08.796Z,79.66
2023-05-17T02:06:59.581Z,79.66
2023-05-17T02:07:50.445Z,79.75
2023-05-17T02:08:41.238Z,79.86
2023-05-17T02:09:32.024Z,79.86
2023-05-17T02:10:22.818Z,79.75
2023-05-17T02:11:13.606Z,79.75
2023-05-17T02:12:04.392Z,79.75
2023-05-17T02:12:55.183Z,79.66
2023-05-17T02:13:46.005Z,79.55
2023-05-17T02:14:36.774Z,79.55
2023-05-17T02:15:27.760Z,79.45
2023-05-17T02:16:18.731Z,79.55
2023-05-17T02:17:09.476Z,79.66
2023-05-17T02:18:00.310Z,79.66
2023-05-17T02:18:51.153Z,79.55
2023-05-17T02:19:41.967Z,79.66
2023-05-17T02:20:32.713Z,79.80
2023-05-17T02:21:23.513Z,79.69
2023-05-17T02:22:14.731Z,79.59
2023-05-17T02:23:05.704Z,79.59
2023-05-17T02:23:56.837Z,79.69
2023-05-17T02:24:48.025Z,79.69
2023-05-17T02:25:39.189Z,79.69
2023-05-17T02:26:29.945Z,79.69
2023-05-17T02:27:20.643Z,79.69
2023-05-17T02:28:11.365Z,79.80
2023-05-17T02:29:02.189Z,79.90
2023-05-17T02:29:52.920Z,79.80
2023-05-17T02:30:43.682Z,79.69
2023-05-17T02:31:34.543Z,79.59
2023-05-17T02:32:25.276Z,79.49
2023-05-17T02:33:16.063Z,79.49
2023-05-17T02:34:06.832Z,79.49
2023-05-17T02:34:57.648Z,79.38
2023-05-17T02:35:48.400Z,79.42
2023-05-17T02:36:39.177Z,79.38
2023-05-17T02:37:29.938Z,79.52
2023-05-17T02:38:20.703Z,79.52
2023-05-17T02:39:11.459Z,79.52
2023-05-17T02:40:02.189Z,79.52
2023-05-17T02:40:53.037Z,79.22
2023-05-17T02:41:43.886Z,79.01
2023-05-17T02:42:35.660Z,78.81
2023-05-17T02:43:25.876Z,78.70
2023-05-17T02:44:16.770Z,78.60
2023-05-17T02:45:07.650Z,78.60
2023-05-17T02:45:58.652Z,78.50
2023-05-17T02:46:49.489Z,78.29
2023-05-17T02:47:40.311Z,78.19
2023-05-17T02:48:31.108Z,78.09
2023-05-17T02:49:21.879Z,77.98
2023-05-17T02:50:12.739Z,78.09
2023-05-17T02:51:03.857Z,78.09
2023-05-17T02:51:54.751Z,78.09
2023-05-17T02:52:45.617Z,78.19
2023-05-17T02:53:36.456Z,78.23
2023-05-17T02:54:27.419Z,78.09
2023-05-17T02:55:18.277Z,78.23
2023-05-17T02:56:09.156Z,78.09
2023-05-17T02:57:00.023Z,78.23
2023-05-17T02:57:50.897Z,78.19
2023-05-17T02:58:41.767Z,77.98
2023-05-17T02:59:32.637Z,77.92
2023-05-17T03:00:23.488Z,77.81
2023-05-17T03:01:14.372Z,77.71
2023-05-17T03:02:05.313Z,77.61
2023-05-17T03:02:56.233Z,77.61
2023-05-17T03:03:47.293Z,77.61
2023-05-17T03:04:38.241Z,77.61
2023-05-17T03:05:29.382Z,77.61
2023-05-17T03:06:19.726Z,77.51
2023-05-17T03:07:10.589Z,77.40
2023-05-17T03:08:01.477Z,77.20
2023-05-17T03:08:52.345Z,77.10
2023-05-17T03:09:43.234Z,77.10
2023-05-17T03:10:34.087Z,77.10
2023-05-17T03:11:24.977Z,77.20
2023-05-17T03:12:15.834Z,77.10
2023-05-17T03:13:06.701Z,77.20
2023-05-17T03:13:57.583Z,77.10
2023-05-17T03:14:48.455Z,77.20
2023-05-17T03:15:39.319Z,77.20
2023-05-17T03:16:30.208Z,77.20
2023-05-17T03:17:21.172Z,77.10
2023-05-17T03:18:12.081Z,77.10
2023-05-17T03:19:03.125Z,77.00
2023-05-17T03:19:54.093Z,76.89
2023-05-17T03:20:44.959Z,76.86
2023-05-17T03:21:35.842Z,76.89
2023-05-17T03:22:26.735Z,76.75
2023-05-17T03:23:17.611Z,76.75
2023-05-17T03:24:08.488Z,76.55
2023-05-17T03:24:59.398Z,76.55
2023-05-17T03:25:50.277Z,76.45
2023-05-17T03:26:41.169Z,76.38
2023-05-17T03:27:32.085Z,76.38
2023-05-17T03:28:22.920Z,76.34
2023-05-17T03:29:13.796Z,76.28
2023-05-17T03:30:04.681Z,76.07
2023-05-17T03:30:55.666Z,75.97
2023-05-17T03:31:46.520Z,75.97
2023-05-17T03:32:37.584Z,76.07
2023-05-17T03:33:28.640Z,76.07
2023-05-17T03:34:19.484Z,76.07
2023-05-17T03:35:10.389Z,75.97
2023-05-17T03:36:01.243Z,75.76
2023-05-17T03:36:52.125Z,75.56
2023-05-17T03:37:43.030Z,75.56
2023-05-17T03:38:33.905Z,75.56
2023-05-17T03:39:24.781Z,75.45
2023-05-17T03:40:15.672Z,75.35
2023-05-17T03:41:06.569Z,75.35
2023-05-17T03:41:57.455Z,75.35
2023-05-17T03:42:48.355Z,75.35
2023-05-17T03:43:39.242Z,75.35
2023-05-17T03:44:30.123Z,75.35
2023-05-17T03:45:21.037Z,75.35
2023-05-17T03:46:11.912Z,75.35
2023-05-17T03:47:02.849Z,75.25
2023-05-17T03:47:53.842Z,75.25
2023-05-17T03:48:44.805Z,75.15
2023-05-17T03:49:35.636Z,75.25
2023-05-17T03:50:26.576Z,75.15
2023-05-17T03:51:17.437Z,75.15
2023-05-17T03:52:08.334Z,75.25
2023-05-17T03:52:59.220Z,75.35
2023-05-17T03:53:50.135Z,75.35
2023-05-17T03:54:41.020Z,75.15
2023-05-17T03:55:31.908Z,75.08
2023-05-17T03:56:22.798Z,74.87
2023-05-17T03:57:13.694Z,74.87
2023-05-17T03:58:04.593Z,74.98
2023-05-17T03:58:55.526Z,74.87
2023-05-17T03:59:46.396Z,74.87
2023-05-17T04:00:37.302Z,74.98
2023-05-17T04:01:28.208Z,75.08
2023-05-17T04:02:19.107Z,75.29
2023-05-17T04:03:10.094Z,75.29
2023-05-17T04:04:00.978Z,75.08
2023-05-17T04:04:51.880Z,74.98
2023-05-17T04:05:42.762Z,74.98
2023-05-17T04:06:33.665Z,75.08
2023-05-17T04:07:24.574Z,75.18
2023-05-17T04:08:15.470Z,75.18
2023-05-17T04:09:06.372Z,75.38
2023-05-17T04:09:57.287Z,75.38
2023-05-17T04:10:49.179Z,75.29
2023-05-17T04:11:38.820Z,75.18
2023-05-17T04:12:29.728Z,74.94
2023-05-17T04:13:20.627Z,74.84
2023-05-17T04:14:11.533Z,74.67
2023-05-17T04:15:02.425Z,74.46
2023-05-17T04:15:53.330Z,74.46
2023-05-17T04:16:44.247Z,74.36
2023-05-17T04:17:35.225Z,74.05
2023-05-17T04:18:26.267Z,73.85
2023-05-17T04:19:17.363Z,73.74
2023-05-17T04:20:08.328Z,73.74
2023-05-17T04:20:59.217Z,73.85
2023-05-17T04:21:50.131Z,73.85
2023-05-17T04:22:41.051Z,73.85
2023-05-17T04:23:31.951Z,73.61
2023-05-17T04:24:22.841Z,73.44
2023-05-17T04:25:13.751Z,72.99
2023-05-17T04:26:04.673Z,72.89
2023-05-17T04:26:55.565Z,72.78
2023-05-17T04:27:46.462Z,72.58
2023-05-17T04:28:37.375Z,72.58
2023-05-17T04:29:28.280Z,72.48
2023-05-17T04:30:19.212Z,72.38
2023-05-17T04:31:10.107Z,72.48
2023-05-17T04:32:01.018Z,72.38
2023-05-17T04:32:51.975Z,72.27
2023-05-17T04:33:42.994Z,72.38
2023-05-17T04:34:33.858Z,72.27
2023-05-17T04:35:24.811Z,72.27
2023-05-17T04:36:15.693Z,72.24
2023-05-17T04:37:06.609Z,72.44
2023-05-17T04:37:57.510Z,72.55
2023-05-17T04:38:48.435Z,72.55
2023-05-17T04:39:39.332Z,72.55
2023-05-17T04:40:30.240Z,72.55
2023-05-17T04:41:21.144Z,72.75
2023-05-17T04:42:12.059Z,72.75
2023-05-17T04:43:02.944Z,72.75
2023-05-17T04:43:53.855Z,72.65
2023-05-17T04:44:44.783Z,72.75
2023-05-17T04:45:35.694Z,72.85
2023-05-17T04:46:26.603Z,72.92
2023-05-17T04:47:17.500Z,73.06
2023-05-17T04:48:08.568Z,73.13
2023-05-17T04:48:59.534Z,73.13
2023-05-17T04:49:50.362Z,72.92
2023-05-17T04:50:41.266Z,72.61
2023-05-17T04:51:32.237Z,72.41
2023-05-17T04:52:23.077Z,72.31
2023-05-17T04:53:13.981Z,72.20
2023-05-17T04:54:04.879Z,72.31
2023-05-17T04:54:55.791Z,72.31
2023-05-17T04:55:46.723Z,72.20
2023-05-17T04:56:37.682Z,71.90
2023-05-17T04:57:28.560Z,71.80
2023-05-17T04:58:19.464Z,71.80
2023-05-17T04:59:10.383Z,71.80
2023-05-17T05:00:01.284Z,71.80
2023-05-17T05:00:52.190Z,71.80
2023-05-17T05:01:43.127Z,71.59
2023-05-17T05:02:34.049Z,71.18
2023-05-17T05:03:24.959Z,71.08
2023-05-17T05:04:16.045Z,71.08
2023-05-17T05:05:07.098Z,71.28
2023-05-17T05:05:58.050Z,71.39
2023-05-17T05:06:48.952Z,71.39
2023-05-17T05:07:40.026Z,71.39
2023-05-17T05:08:30.963Z,71.18
2023-05-17T05:09:21.871Z,71.08
2023-05-17T05:10:12.789Z,70.97
2023-05-17T05:11:03.689Z,70.56
2023-05-17T05:11:54.608Z,70.36
2023-05-17T05:12:45.549Z,70.36
2023-05-17T05:13:36.448Z,70.36
2023-05-17T05:14:27.385Z,70.46
2023-05-17T05:15:18.278Z,70.46
2023-05-17T05:16:09.218Z,70.43
2023-05-17T05:17:00.111Z,70.32
2023-05-17T05:17:51.128Z,70.32
2023-05-17T05:18:42.162Z,70.22
2023-05-17T05:19:33.291Z,70.12
2023-05-17T05:20:25.786Z,70.12
2023-05-17T05:21:14.993Z,70.22
2023-05-17T05:22:05.907Z,70.12
2023-05-17T05:22:56.807Z,70.12
2023-05-17T05:23:47.720Z,69.92
2023-05-17T05:24:38.630Z,69.92
2023-05-17T05:25:29.859Z,69.89
2023-05-17T05:26:20.328Z,69.78
2023-05-17T05:27:11.228Z,69.78
2023-05-17T05:28:02.166Z,69.68
2023-05-17T05:28:53.053Z,69.47
2023-05-17T05:29:43.950Z,69.06
2023-05-17T05:30:34.865Z,68.76
2023-05-17T05:31:25.777Z,68.65
2023-05-17T05:32:16.688Z,68.55
2023-05-17T05:33:07.753Z,68.76
2023-05-17T05:33:58.682Z,68.86
2023-05-17T05:34:49.754Z,68.86
2023-05-17T05:35:40.585Z,68.65
2023-05-17T05:36:31.499Z,68.45
2023-05-17T05:37:22.423Z,68.24
2023-05-17T05:38:13.334Z,68.24
2023-05-17T05:39:04.222Z,68.24
2023-05-17T05:39:55.140Z,68.04
2023-05-17T05:40:46.038Z,67.73
2023-05-17T05:41:36.947Z,67.52
2023-05-17T05:42:27.847Z,67.52
2023-05-17T05:43:18.798Z,67.52
2023-05-17T05:44:09.679Z,67.52
2023-05-17T05:45:00.580Z,67.63
2023-05-17T05:45:51.488Z,67.73
2023-05-17T05:46:42.388Z,67.73
2023-05-17T05:47:33.310Z,67.73
2023-05-17T05:48:24.381Z,67.70
2023-05-17T05:49:15.301Z,67.60
2023-05-17T05:50:06.247Z,67.60
2023-05-17T05:50:57.136Z,67.70
2023-05-17T05:51:48.066Z,67.70
2023-05-17T05:52:38.974Z,67.80
2023-05-17T05:53:29.886Z,67.80
2023-05-17T05:54:20.771Z,68.01
2023-05-17T05:55:11.713Z,68.21
2023-05-17T05:56:02.606Z,68.21
2023-05-17T05:56:53.500Z,68.11
2023-05-17T05:57:44.400Z,67.90
2023-05-17T05:58:35.324Z,67.80
2023-05-17T05:59:26.230Z,67.70
2023-05-17T06:00:17.128Z,67.70
2023-05-17T06:01:08.047Z,67.80
2023-05-17T06:01:58.951Z,67.80
2023-05-17T06:02:49.933Z,67.70
2023-05-17T06:03:40.820Z,67.40
2023-05-17T06:04:44.017Z,67.19
2023-05-17T06:05:23.795Z,67.19
2023-05-17T06:06:13.527Z,67.19
2023-05-17T06:07:04.606Z,67.16
2023-05-17T06:07:55.420Z,67.05
2023-05-17T06:08:46.354Z,67.19
2023-05-17T06:09:37.246Z,67.40
2023-05-17T06:10:28.290Z,67.57
2023-05-17T06:11:19.240Z,67.77
2023-05-17T06:12:10.193Z,67.87
2023-05-17T06:13:01.058Z,67.77
2023-05-17T06:13:52.005Z,67.67
2023-05-17T06:14:42.882Z,67.57
2023-05-17T06:15:33.807Z,67.57
2023-05-17T06:16:24.874Z,67.57
2023-05-17T06:17:15.720Z,67.77
2023-05-17T06:18:06.691Z,67.77
2023-05-17T06:18:57.707Z,67.87
2023-05-17T06:19:48.639Z,67.77
2023-05-17T06:20:39.639Z,67.57
2023-05-17T06:21:30.471Z,67.26
2023-05-17T06:22:21.380Z,67.26
2023-05-17T06:23:12.307Z,67.36
2023-05-17T06:24:05.043Z,67.16
2023-05-17T06:24:54.283Z,66.85
2023-05-17T06:25:45.200Z,66.34
2023-05-17T06:26:36.097Z,66.24
2023-05-17T06:27:27.026Z,66.24
2023-05-17T06:28:17.934Z,66.13
2023-05-17T06:29:09.706Z,65.93
2023-05-17T06:30:00.009Z,65.83
2023-05-17T06:30:50.934Z,65.80
2023-05-17T06:31:43.252Z,65.80
2023-05-17T06:32:35.776Z,65.39
2023-05-17T06:33:23.741Z,65.18
2023-05-17T06:34:14.661Z,65.28
2023-05-17T06:35:05.545Z,65.49
2023-05-17T06:35:58.174Z,65.49
2023-05-17T06:36:47.592Z,65.18
2023-05-17T06:37:38.557Z,64.74
2023-05-17T06:38:29.464Z,64.74
2023-05-17T06:39:20.364Z,64.64
2023-05-17T06:40:16.418Z,64.54
2023-05-17T06:41:03.208Z,64.54
2023-05-17T06:41:52.894Z,64.23
2023-05-17T06:42:43.824Z,64.30
2023-05-17T06:43:35.816Z,64.40
2023-05-17T06:44:25.376Z,64.61
2023-05-17T06:45:16.282Z,64.92
2023-05-17T06:46:07.198Z,65.02
2023-05-17T06:46:58.151Z,65.12
2023-05-17T06:47:49.134Z,64.71
2023-05-17T06:48:40.206Z,63.59
2023-05-17T06:49:31.193Z,62.95
2023-05-17T06:50:22.128Z,62.43
2023-05-17T06:51:13.111Z,62.13
2023-05-17T06:52:03.973Z,61.82
2023-05-17T06:52:54.889Z,62.02
2023-05-17T06:53:45.766Z,62.23
2023-05-17T06:54:36.706Z,62.13
2023-05-17T06:55:29.576Z,62.02
2023-05-17T06:56:18.217Z,61.92
2023-05-17T06:57:09.182Z,61.92
2023-05-17T06:58:00.072Z,61.61
2023-05-17T06:58:50.968Z,61.00
2023-05-17T06:59:41.878Z,60.69
2023-05-17T07:00:33.180Z,60.49
2023-05-17T07:01:23.647Z,60.49
2023-05-17T07:02:14.581Z,60.39
2023-05-17T07:03:05.582Z,59.98
2023-05-17T07:03:56.627Z,59.57
2023-05-17T07:04:47.572Z,58.86
2023-05-17T07:05:38.283Z,58.96
2023-05-17T07:06:29.296Z,58.96
2023-05-17T07:07:20.123Z,59.16
2023-05-17T07:08:11.058Z,58.98
2023-05-17T07:09:01.973Z,59.09
2023-05-17T07:09:52.843Z,59.30
2023-05-17T07:10:43.764Z,59.30
2023-05-17T07:11:34.668Z,59.30
2023-05-17T07:12:25.576Z,59.30
2023-05-17T07:13:16.526Z,59.50
2023-05-17T07:14:07.395Z,59.91
2023-05-17T07:14:58.314Z,60.21
2023-05-17T07:15:49.212Z,60.21
2023-05-17T07:16:40.127Z,60.42
2023-05-17T07:17:31.076Z,60.52
2023-05-17T07:18:22.054Z,60.62
2023-05-17T07:19:12.946Z,60.62
2023-05-17T07:20:03.896Z,60.72
2023-05-17T07:20:54.770Z,61.03
2023-05-17T07:21:45.786Z,61.36
2023-05-17T07:22:36.627Z,61.36
2023-05-17T07:23:27.587Z,61.26
2023-05-17T07:24:18.455Z,61.36
2023-05-17T07:25:09.382Z,61.47
2023-05-17T07:26:00.282Z,61.26
2023-05-17T07:26:52.457Z,61.06
2023-05-17T07:27:41.825Z,61.06
2023-05-17T07:28:33.776Z,60.83
2023-05-17T07:29:23.459Z,60.72
2023-05-17T07:30:14.383Z,60.83
2023-05-17T07:31:05.323Z,60.83
2023-05-17T07:31:56.210Z,60.93
2023-05-17T07:32:47.167Z,61.03
2023-05-17T07:33:37.897Z,61.03
2023-05-17T07:34:28.813Z,61.24
2023-05-17T07:35:26.343Z,61.24
2023-05-17T07:36:11.747Z,61.13
2023-05-17T07:37:01.831Z,61.00
2023-05-17T07:37:53.252Z,60.90
2023-05-17T07:38:43.606Z,60.80
2023-05-17T07:39:34.518Z,60.69
2023-05-17T07:40:25.533Z,60.28
2023-05-17T07:41:16.477Z,60.19
2023-05-17T07:42:07.387Z,59.98
2023-05-17T07:42:58.309Z,60.08
2023-05-17T07:43:49.255Z,60.08
2023-05-17T07:44:40.161Z,60.08
2023-05-17T07:45:31.294Z,60.08
2023-05-17T07:46:22.243Z,60.19
2023-05-17T07:47:13.173Z,59.98
2023-05-17T07:48:04.112Z,59.88
2023-05-17T07:48:58.120Z,59.98
2023-05-17T07:49:45.857Z,60.08
2023-05-17T07:50:36.750Z,60.19
2023-05-17T07:51:27.658Z,60.28
2023-05-17T07:52:18.617Z,60.52
2023-05-17T07:53:09.476Z,59.98
2023-05-17T07:54:00.424Z,59.70
2023-05-17T07:54:51.298Z,59.60
2023-05-17T07:55:43.237Z,59.47
2023-05-17T07:56:32.934Z,59.27
2023-05-17T07:57:23.846Z,59.27
2023-05-17T07:58:14.805Z,59.16
2023-05-17T07:59:05.733Z,59.16
2023-05-17T07:59:56.644Z,59.37
2023-05-17T08:00:47.555Z,59.57
2023-05-17T08:01:38.469Z,59.98
2023-05-17T08:02:29.403Z,60.28
2023-05-17T08:03:20.327Z,60.28
2023-05-17T08:04:11.286Z,60.19
2023-05-17T08:05:02.267Z,59.98
2023-05-17T08:05:53.211Z,59.78
2023-05-17T08:06:44.102Z,59.23
2023-05-17T08:07:35.109Z,58.93
2023-05-17T08:08:26.026Z,58.73
2023-05-17T08:09:16.986Z,58.52
2023-05-17T08:10:07.881Z,58.42
2023-05-17T08:10:58.805Z,58.39
2023-05-17T08:11:49.731Z,58.39
2023-05-17T08:12:41.262Z,57.98
2023-05-17T08:13:31.586Z,58.09
2023-05-17T08:14:22.532Z,58.09
2023-05-17T08:15:13.424Z,58.29
2023-05-17T08:16:12.794Z,58.19
2023-05-17T08:16:56.275Z,57.37
2023-05-17T08:17:46.050Z,57.07
2023-05-17T08:18:37.156Z,56.84
2023-05-17T08:19:28.266Z,56.43
2023-05-17T08:20:19.318Z,56.43
2023-05-17T08:21:10.240Z,56.53
2023-05-17T08:22:01.166Z,56.43
2023-05-17T08:22:52.095Z,56.32
2023-05-17T08:23:42.996Z,56.43
2023-05-17T08:24:33.960Z,55.61
2023-05-17T08:25:24.862Z,55.41
2023-05-17T08:26:15.773Z,54.69
2023-05-17T08:27:06.715Z,54.69
2023-05-17T08:27:57.630Z,55.10
2023-05-17T08:28:48.560Z,55.20
2023-05-17T08:29:39.793Z,55.20
2023-05-17T08:30:30.168Z,55.00
2023-05-17T08:31:22.081Z,54.79
2023-05-17T08:32:11.785Z,54.90
2023-05-17T08:33:02.785Z,54.79
2023-05-17T08:33:53.827Z,54.69
2023-05-17T08:34:44.863Z,54.79
2023-05-17T08:35:35.771Z,54.79
2023-05-17T08:36:26.705Z,54.79
2023-05-17T08:37:18.373Z,54.90
2023-05-17T08:38:08.700Z,54.79
2023-05-17T08:38:59.599Z,54.90
2023-05-17T08:39:50.579Z,54.79
2023-05-17T08:40:41.449Z,54.90
2023-05-17T08:41:32.366Z,54.90
2023-05-17T08:42:23.291Z,55.00
2023-05-17T08:43:14.224Z,55.10
2023-05-17T08:44:05.165Z,55.41
2023-05-17T08:44:56.105Z,55.28
2023-05-17T08:45:47.008Z,55.07
2023-05-17T08:46:37.904Z,55.18
2023-05-17T08:47:28.864Z,55.30
2023-05-17T08:48:19.973Z,55.51
2023-05-17T08:49:10.967Z,55.58
2023-05-17T08:50:01.852Z,55.69
2023-05-17T08:50:52.723Z,55.18
2023-05-17T08:51:43.627Z,55.18
2023-05-17T08:52:34.616Z,55.07
2023-05-17T08:53:25.658Z,55.30
2023-05-17T08:54:16.556Z,55.38
2023-05-17T08:55:07.462Z,54.87
2023-05-17T08:55:58.439Z,54.67
2023-05-17T08:56:49.333Z,54.57
2023-05-17T08:57:40.266Z,54.67
2023-05-17T08:58:32.592Z,54.57
2023-05-17T08:59:23.169Z,54.16
2023-05-17T09:00:12.860Z,54.16
2023-05-17T09:01:03.828Z,54.16
2023-05-17T09:01:54.756Z,54.33
2023-05-17T09:02:45.706Z,54.44
2023-05-17T09:03:36.700Z,54.64
2023-05-17T09:04:27.598Z,54.33
2023-05-17T09:05:18.519Z,54.24
2023-05-17T09:06:09.435Z,54.24
2023-05-17T09:07:00.319Z,54.03
2023-05-17T09:07:51.253Z,53.92
2023-05-17T09:08:42.194Z,54.13
2023-05-17T09:09:33.092Z,54.13
2023-05-17T09:10:24.038Z,53.92
2023-05-17T09:11:15.003Z,53.83
2023-05-17T09:12:05.938Z,53.92
2023-05-17T09:12:56.865Z,53.80
2023-05-17T09:13:47.811Z,53.80
2023-05-17T09:14:38.863Z,53.59
2023-05-17T09:15:29.759Z,53.39
2023-05-17T09:16:20.702Z,53.19
2023-05-17T09:17:11.717Z,53.09
2023-05-17T09:18:02.693Z,53.19
2023-05-17T09:18:53.701Z,52.88
2023-05-17T09:19:44.845Z,52.78
2023-05-17T09:20:35.483Z,53.09
2023-05-17T09:21:26.424Z,53.39
2023-05-17T09:22:17.372Z,53.50
2023-05-17T09:23:08.273Z,53.80
2023-05-17T09:24:06.234Z,54.11
2023-05-17T09:24:51.151Z,54.31
2023-05-17T09:25:40.866Z,54.21
2023-05-17T09:26:31.789Z,54.08
2023-05-17T09:27:22.763Z,54.28
2023-05-17T09:28:13.700Z,54.49
2023-05-17T09:29:04.643Z,54.28
2023-05-17T09:29:55.559Z,54.18
2023-05-17T09:30:46.522Z,53.98
2023-05-17T09:31:37.426Z,53.67
2023-05-17T09:32:28.398Z,53.88
2023-05-17T09:33:19.468Z,54.08
2023-05-17T09:34:10.403Z,54.18
2023-05-17T09:35:01.282Z,54.39
2023-05-17T09:35:52.212Z,54.69
2023-05-17T09:36:43.143Z,54.59
2023-05-17T09:37:34.065Z,54.39
2023-05-17T09:38:25.474Z,54.18
2023-05-17T09:39:15.805Z,54.08
2023-05-17T09:40:06.706Z,53.34
2023-05-17T09:40:57.647Z,53.14
2023-05-17T09:41:48.588Z,53.14
2023-05-17T09:42:39.502Z,53.14
2023-05-17T09:43:30.447Z,53.24
2023-05-17T09:44:22.342Z,53.44
2023-05-17T09:45:12.540Z,53.44
2023-05-17T09:46:03.452Z,53.24
2023-05-17T09:46:54.404Z,53.24
2023-05-17T09:47:45.398Z,53.14
2023-05-17T09:48:36.383Z,53.14
2023-05-17T09:49:27.260Z,52.94
2023-05-17T09:50:18.196Z,52.83
2023-05-17T09:51:09.150Z,52.83
2023-05-17T09:52:00.092Z,53.04
2023-05-17T09:52:51.003Z,53.34
2023-05-17T09:53:41.970Z,53.32
2023-05-17T09:54:32.929Z,53.22
2023-05-17T09:55:23.847Z,52.81
2023-05-17T09:56:14.789Z,52.81
2023-05-17T09:57:05.734Z,52.71
2023-05-17T09:57:56.644Z,52.50
2023-05-17T09:58:47.599Z,52.48
2023-05-17T09:59:38.537Z,52.68
2023-05-17T10:00:29.477Z,52.28
2023-05-17T10:01:20.409Z,52.17
2023-05-17T10:02:11.326Z,52.48
2023-05-17T10:03:02.445Z,52.58
2023-05-17T10:03:53.573Z,52.78
2023-05-17T10:04:44.505Z,52.98
2023-05-17T10:05:35.514Z,53.29
2023-05-17T10:06:39.199Z,53.39
2023-05-17T10:07:18.365Z,53.50
2023-05-17T10:08:08.076Z,53.50
2023-05-17T10:08:59.041Z,53.17
2023-05-17T10:09:49.999Z,52.66
2023-05-17T10:10:40.904Z,52.66
2023-05-17T10:11:31.849Z,52.76
2023-05-17T10:12:23.703Z,52.66
2023-05-17T10:13:14.046Z,52.56
2023-05-17T10:14:04.998Z,52.43
2023-05-17T10:14:56.074Z,52.33
2023-05-17T10:15:47.006Z,51.72
2023-05-17T10:16:37.962Z,51.72
2023-05-17T10:17:28.899Z,51.92
2023-05-17T10:18:19.863Z,51.95
2023-05-17T10:19:10.904Z,52.05
2023-05-17T10:20:01.900Z,52.05
2023-05-17T10:20:52.873Z,52.35
2023-05-17T10:21:43.810Z,52.63
2023-05-17T10:22:34.731Z,52.53
2023-05-17T10:23:25.662Z,52.53
2023-05-17T10:24:16.625Z,52.12
2023-05-17T10:25:07.633Z,51.92
2023-05-17T10:25:58.515Z,51.92
2023-05-17T10:26:49.459Z,52.12
2023-05-17T10:27:40.391Z,52.25
2023-05-17T10:28:31.322Z,52.45
2023-05-17T10:29:22.259Z,52.76
2023-05-17T10:30:13.177Z,53.06
2023-05-17T10:31:04.096Z,52.86
2023-05-17T10:31:55.045Z,52.84
2023-05-17T10:32:46.158Z,52.84
2023-05-17T10:33:37.167Z,52.94
2023-05-17T10:34:28.045Z,53.04
2023-05-17T10:35:18.968Z,53.04
2023-05-17T10:36:09.901Z,52.94
2023-05-17T10:37:00.804Z,52.84
2023-05-17T10:37:51.725Z,52.84
2023-05-17T10:38:43.238Z,52.86
2023-05-17T10:39:33.585Z,52.66
2023-05-17T10:40:24.510Z,52.66
2023-05-17T10:41:15.393Z,52.86
2023-05-17T10:42:14.393Z,53.17
2023-05-17T10:42:58.223Z,53.47
2023-05-17T10:43:47.915Z,53.59
2023-05-17T10:44:38.839Z,53.70
2023-05-17T10:45:30.038Z,53.70
2023-05-17T10:46:20.550Z,53.70
2023-05-17T10:47:11.501Z,53.90
2023-05-17T10:48:02.441Z,54.31
2023-05-17T10:48:53.372Z,54.51
2023-05-17T10:49:44.302Z,54.59
2023-05-17T10:50:35.223Z,54.59
2023-05-17T10:51:26.159Z,54.39
2023-05-17T10:52:17.088Z,54.16
2023-05-17T10:53:08.020Z,54.36
2023-05-17T10:53:58.939Z,54.33
2023-05-17T10:54:49.900Z,53.93
2023-05-17T10:55:40.843Z,53.63